createdAt,value
2019-04-28T00:01:57.500Z,3.27
2019-04-28T00:04:25.752Z,2.00
2019-04-28T00:06:54.018Z,3.57
2019-04-28T00:09:23.181Z,1.73
2019-04-28T00:11:51.780Z,2.40
2019-04-28T00:14:21.886Z,3.93
2019-04-28T00:16:51.196Z,2.13
2019-04-28T00:19:22.326Z,4.17
2019-04-28T00:21:55.332Z,2.70
2019-04-28T00:24:37.211Z,1.50
2019-04-28T00:27:05.974Z,5.67
2019-04-28T00:29:40.466Z,3.53
2019-04-28T00:32:04.201Z,2.60
2019-04-28T00:34:32.470Z,7.93
2019-04-28T00:37:02.381Z,2.53
2019-04-28T00:39:31.103Z,4.77
2019-04-28T00:41:59.441Z,2.77
2019-04-28T00:44:27.899Z,0.90
2019-04-28T00:46:56.498Z,1.53
2019-04-28T00:49:43.224Z,2.93
2019-04-28T00:52:11.526Z,1.13
2019-04-28T00:54:39.786Z,1.97
2019-04-28T00:57:08.063Z,1.97
2019-04-28T00:59:36.321Z,1.43
2019-04-28T01:02:06.210Z,4.07
2019-04-28T01:04:34.478Z,3.10
2019-04-28T01:07:03.309Z,4.60
2019-04-28T01:09:31.667Z,3.37
2019-04-28T01:12:01.797Z,3.17
2019-04-28T01:14:30.997Z,3.53
2019-04-28T01:17:04.718Z,5.33
2019-04-28T01:19:34.646Z,4.13
2019-04-28T01:22:11.997Z,1.90
2019-04-28T01:24:40.398Z,1.17
2019-04-28T01:27:25.593Z,2.17
2019-04-28T01:30:05.369Z,4.90
2019-04-28T01:32:44.014Z,2.93
2019-04-28T01:35:12.273Z,1.67
2019-04-28T01:37:40.791Z,3.47
2019-04-28T01:40:09.581Z,2.40
2019-04-28T01:42:37.934Z,1.87
2019-04-28T01:45:06.762Z,3.07
2019-04-28T01:47:35.013Z,2.97
2019-04-28T01:50:03.285Z,5.20
2019-04-28T01:52:31.603Z,2.37
2019-04-28T01:55:00.440Z,2.87
2019-04-28T01:57:29.943Z,4.23
2019-04-28T01:59:59.944Z,2.07
2019-04-28T02:02:30.023Z,2.00
2019-04-28T02:04:59.859Z,3.40
2019-04-28T02:07:30.628Z,2.07
2019-04-28T02:09:58.401Z,2.60
2019-04-28T02:12:27.136Z,1.50
2019-04-28T02:14:55.383Z,3.60
2019-04-28T02:17:23.662Z,1.67
2019-04-28T02:19:51.919Z,1.50
2019-04-28T02:22:21.822Z,2.83
2019-04-28T02:24:50.573Z,3.43
2019-04-28T02:27:20.355Z,2.13
2019-04-28T02:29:49.898Z,2.83
2019-04-28T02:32:23.845Z,2.00
2019-04-28T02:34:50.616Z,3.13
2019-04-28T02:37:20.587Z,2.63
2019-04-28T02:39:50.542Z,2.13
2019-04-28T02:42:20.812Z,1.20
2019-04-28T02:44:50.403Z,5.00
2019-04-28T02:47:21.635Z,2.03
2019-04-28T02:49:50.577Z,1.70
2019-04-28T02:52:20.788Z,1.83
2019-04-28T02:54:50.730Z,1.10
2019-04-28T02:57:20.923Z,2.87
2019-04-28T02:59:50.865Z,3.17
2019-04-28T03:02:20.768Z,2.87
2019-04-28T03:04:50.598Z,3.40
2019-04-28T03:07:21.697Z,1.33
2019-04-28T03:09:51.959Z,2.63
2019-04-28T03:12:21.585Z,2.00
2019-04-28T03:14:50.527Z,1.60
2019-04-28T03:17:20.829Z,3.27
2019-04-28T03:19:51.729Z,2.33
2019-04-28T03:22:20.480Z,1.60
2019-04-28T03:24:51.155Z,1.10
2019-04-28T03:27:27.268Z,3.80
2019-04-28T03:30:00.950Z,2.77
2019-04-28T03:32:44.678Z,1.30
2019-04-28T03:35:02.916Z,1.30
2019-04-28T03:37:31.668Z,2.57
2019-04-28T03:40:00.600Z,3.13
2019-04-28T03:42:31.397Z,1.87
2019-04-28T03:45:01.119Z,1.87
2019-04-28T03:47:31.306Z,2.33
2019-04-28T03:50:00.141Z,4.30
2019-04-28T03:52:31.018Z,0.87
2019-04-28T03:55:00.582Z,2.73
2019-04-28T03:57:31.330Z,1.43
2019-04-28T04:00:01.506Z,4.90
2019-04-28T04:02:31.153Z,2.53
2019-04-28T04:05:03.385Z,1.70
2019-04-28T04:07:31.112Z,1.60
2019-04-28T04:10:16.670Z,1.47
2019-04-28T04:13:01.646Z,2.53
2019-04-28T04:15:53.715Z,1.30
2019-04-28T04:18:36.449Z,1.60
2019-04-28T04:21:04.714Z,1.97
2019-04-28T04:23:33.014Z,1.13
2019-04-28T04:26:01.954Z,2.33
2019-04-28T04:28:30.883Z,1.07
2019-04-28T04:31:02.491Z,2.63
2019-04-28T04:33:31.047Z,3.17
2019-04-28T04:36:01.596Z,1.17
2019-04-28T04:38:31.191Z,2.73
2019-04-28T04:41:01.457Z,2.30
2019-04-28T04:43:30.978Z,1.33
2019-04-28T04:46:14.224Z,2.10
2019-04-28T04:48:43.791Z,1.40
2019-04-28T04:51:12.063Z,2.60
2019-04-28T04:53:40.834Z,1.13
2019-04-28T04:56:10.531Z,1.13
2019-04-28T04:58:40.757Z,1.10
2019-04-28T05:01:13.442Z,3.07
2019-04-28T05:03:43.419Z,1.80
2019-04-28T05:06:29.969Z,1.30
2019-04-28T05:08:59.868Z,1.07
2019-04-28T05:11:29.978Z,1.93
2019-04-28T05:13:59.648Z,1.70
2019-04-28T05:16:29.674Z,1.70
2019-04-28T05:19:00.050Z,2.10
2019-04-28T05:21:32.578Z,1.30
2019-04-28T05:24:15.785Z,1.90
2019-04-28T05:26:47.882Z,0.80
2019-04-28T05:29:14.156Z,1.43
2019-04-28T05:31:42.424Z,1.37
2019-04-28T05:34:11.637Z,1.67
2019-04-28T05:36:44.349Z,2.47
2019-04-28T05:39:10.504Z,1.00
2019-04-28T05:41:39.969Z,2.70
2019-04-28T05:44:10.040Z,0.90
2019-04-28T05:46:40.210Z,0.87
2019-04-28T05:49:10.365Z,1.00
2019-04-28T05:51:40.353Z,1.33
2019-04-28T05:54:19.813Z,2.13
2019-04-28T05:56:59.744Z,1.20
2019-04-28T05:59:45.367Z,2.30
2019-04-28T06:02:21.923Z,0.60
2019-04-28T06:04:50.435Z,2.53
2019-04-28T06:07:20.348Z,1.13
2019-04-28T06:09:50.250Z,1.20
2019-04-28T06:12:20.121Z,1.27
2019-04-28T06:14:50.215Z,0.97
2019-04-28T06:17:20.527Z,1.77
2019-04-28T06:19:50.408Z,1.30
2019-04-28T06:22:18.926Z,1.43
2019-04-28T06:24:47.175Z,1.53
2019-04-28T06:27:15.438Z,1.23
2019-04-28T06:29:43.698Z,0.97
2019-04-28T06:32:11.963Z,0.67
2019-04-28T06:34:40.234Z,1.10
2019-04-28T06:37:08.486Z,0.93
2019-04-28T06:39:36.742Z,2.50
2019-04-28T06:42:05.030Z,1.33
2019-04-28T06:44:33.854Z,2.83
2019-04-28T06:47:02.127Z,3.13
2019-04-28T06:49:30.383Z,1.83
2019-04-28T06:51:58.655Z,1.17
2019-04-28T06:54:27.002Z,1.10
2019-04-28T06:56:55.266Z,0.60
2019-04-28T06:59:23.546Z,1.97
2019-04-28T07:01:51.807Z,2.83
2019-04-28T07:04:20.082Z,0.70
2019-04-28T07:06:48.680Z,3.20
2019-04-28T07:09:17.047Z,3.73
2019-04-28T07:11:45.855Z,1.87
2019-04-28T07:14:14.106Z,3.20
2019-04-28T07:16:42.370Z,3.77
2019-04-28T07:19:11.203Z,3.93
2019-04-28T07:21:41.110Z,3.93
2019-04-28T07:24:09.543Z,3.60
2019-04-28T07:26:37.811Z,3.13
2019-04-28T07:29:06.062Z,4.87
2019-04-28T07:31:34.323Z,2.37
2019-04-28T07:34:03.038Z,20.83
2019-04-28T07:36:31.465Z,10.10
2019-04-28T07:39:00.017Z,6.17
2019-04-28T07:41:28.275Z,4.23
2019-04-28T07:43:56.543Z,6.07
2019-04-28T07:46:24.818Z,2.93
2019-04-28T07:48:53.084Z,5.13
2019-04-28T07:51:22.983Z,4.13
2019-04-28T07:53:55.990Z,2.03
2019-04-28T07:56:24.242Z,5.03
2019-04-28T07:58:52.511Z,2.93
2019-04-28T08:01:21.354Z,4.77
2019-04-28T08:03:50.238Z,4.83
2019-04-28T08:06:19.096Z,3.33
2019-04-28T08:08:47.358Z,2.40
2019-04-28T08:11:15.691Z,2.07
2019-04-28T08:13:43.959Z,3.10
2019-04-28T08:16:12.278Z,1.47
2019-04-28T08:18:40.547Z,1.50
2019-04-28T08:21:08.803Z,4.43
2019-04-28T08:23:46.945Z,11.50
2019-04-28T08:26:07.049Z,4.20
2019-04-28T08:28:35.554Z,9.00
2019-04-28T08:31:05.406Z,9.50
2019-04-28T08:33:35.310Z,2.67
2019-04-28T08:36:03.868Z,3.13
2019-04-28T08:38:32.118Z,8.37
2019-04-28T08:41:01.078Z,6.93
2019-04-28T08:43:29.638Z,10.27
2019-04-28T08:45:57.927Z,10.03
2019-04-28T08:48:26.178Z,8.83
2019-04-28T08:50:54.450Z,4.37
2019-04-28T08:53:22.707Z,5.67
2019-04-28T08:55:50.979Z,6.67
2019-04-28T08:58:19.599Z,5.37
2019-04-28T09:00:47.860Z,4.70
2019-04-28T09:03:16.139Z,12.67
2019-04-28T09:05:44.402Z,8.10
2019-04-28T09:08:12.667Z,13.17
2019-04-28T09:10:40.939Z,18.70
2019-04-28T09:13:09.296Z,19.43
2019-04-28T09:15:38.203Z,19.70
2019-04-28T09:18:07.035Z,19.33
2019-04-28T09:20:35.316Z,26.83
2019-04-28T09:23:03.572Z,16.43
2019-04-28T09:25:31.853Z,13.17
2019-04-28T09:28:00.119Z,20.27
2019-04-28T09:30:28.479Z,26.13
2019-04-28T09:32:57.331Z,17.27
2019-04-28T09:35:26.159Z,16.93
2019-04-28T09:37:54.426Z,23.63
2019-04-28T09:40:22.681Z,20.40
2019-04-28T09:43:04.824Z,16.43
2019-04-28T09:45:34.750Z,18.67
2019-04-28T09:48:03.019Z,18.27
2019-04-28T09:50:31.279Z,25.90
2019-04-28T09:52:59.574Z,27.30
2019-04-28T09:55:27.836Z,28.53
2019-04-28T09:57:56.112Z,26.57
2019-04-28T10:00:24.391Z,22.00
2019-04-28T10:02:52.682Z,17.57
2019-04-28T10:05:20.939Z,19.57
2019-04-28T10:07:49.211Z,26.63
2019-04-28T10:10:17.802Z,17.53
2019-04-28T10:12:46.135Z,22.67
2019-04-28T10:15:14.462Z,20.53
2019-04-28T10:17:43.039Z,16.80
2019-04-28T10:20:12.189Z,17.83
2019-04-28T10:22:40.458Z,23.43
2019-04-28T10:25:08.738Z,21.57
2019-04-28T10:27:37.086Z,16.93
2019-04-28T10:30:09.091Z,20.67
2019-04-28T10:32:37.826Z,14.57
2019-04-28T10:35:06.460Z,18.60
2019-04-28T10:37:35.424Z,15.80
2019-04-28T10:40:10.178Z,14.37
2019-04-28T10:42:38.471Z,16.37
2019-04-28T10:45:08.710Z,15.43
2019-04-28T10:47:37.045Z,13.37
2019-04-28T10:50:05.526Z,18.53
2019-04-28T10:52:33.783Z,12.33
2019-04-28T10:55:03.964Z,12.57
2019-04-28T10:57:32.222Z,13.77
2019-04-28T11:00:00.503Z,11.43
2019-04-28T11:02:28.782Z,14.73
2019-04-28T11:05:08.043Z,12.90
2019-04-28T11:07:28.694Z,14.43
2019-04-28T11:10:13.959Z,14.67
2019-04-28T11:12:42.218Z,12.70
2019-04-28T11:15:12.115Z,11.83
2019-04-28T11:17:40.394Z,10.73
2019-04-28T11:20:08.663Z,12.57
2019-04-28T11:22:36.922Z,14.63
2019-04-28T11:25:06.678Z,11.03
2019-04-28T11:27:35.122Z,8.67
2019-04-28T11:30:05.395Z,13.90
2019-04-28T11:32:33.654Z,14.83
2019-04-28T11:35:03.822Z,10.23
2019-04-28T11:37:32.250Z,12.37
2019-04-28T11:40:00.519Z,9.10
2019-04-28T11:42:28.779Z,11.20
2019-04-28T11:44:57.046Z,11.57
2019-04-28T11:47:25.299Z,8.43
2019-04-28T11:49:53.570Z,7.57
2019-04-28T11:52:21.850Z,11.03
2019-04-28T11:54:50.423Z,10.37
2019-04-28T11:57:18.674Z,14.57
2019-04-28T11:59:46.947Z,13.77
2019-04-28T12:02:15.207Z,9.33
2019-04-28T12:04:43.543Z,12.23
2019-04-28T12:07:11.826Z,14.80
2019-04-28T12:09:41.742Z,10.20
2019-04-28T12:12:11.679Z,12.83
2019-04-28T12:14:56.564Z,11.17
2019-04-28T12:17:26.808Z,10.23
2019-04-28T12:19:59.407Z,9.63
2019-04-28T12:22:27.693Z,9.37
2019-04-28T12:24:55.974Z,12.93
2019-04-28T12:27:24.250Z,8.67
2019-04-28T12:29:52.511Z,8.93
2019-04-28T12:32:20.779Z,10.30
2019-04-28T12:34:49.061Z,10.07
2019-04-28T12:37:17.330Z,9.83
2019-04-28T12:39:45.586Z,10.60
2019-04-28T12:42:13.878Z,7.90
2019-04-28T12:44:42.132Z,8.77
2019-04-28T12:47:10.402Z,9.30
2019-04-28T12:49:43.031Z,10.30
2019-04-28T12:52:11.971Z,10.37
2019-04-28T12:54:40.613Z,9.00
2019-04-28T12:57:08.970Z,30.53
2019-04-28T12:59:38.866Z,8.07
2019-04-28T13:02:11.503Z,10.60
2019-04-28T13:04:44.098Z,10.93
2019-04-28T13:07:12.375Z,7.63
2019-04-28T13:09:40.630Z,12.90
2019-04-28T13:12:09.240Z,8.20
2019-04-28T13:14:37.492Z,9.03
2019-04-28T13:17:05.758Z,12.33
2019-04-28T13:19:34.883Z,11.07
2019-04-28T13:22:05.538Z,9.90
2019-04-28T13:24:33.660Z,10.17
2019-04-28T13:27:02.266Z,8.90
2019-04-28T13:29:30.542Z,8.33
2019-04-28T13:31:58.830Z,9.53
2019-04-28T13:34:28.752Z,9.30
2019-04-28T13:36:57.006Z,11.07
2019-04-28T13:39:29.523Z,7.30
2019-04-28T13:41:57.783Z,6.87
2019-04-28T13:44:43.911Z,7.10
2019-04-28T13:47:12.200Z,8.37
2019-04-28T13:49:58.126Z,8.80
2019-04-28T13:52:26.403Z,13.20
2019-04-28T13:55:05.074Z,5.80
2019-04-28T13:57:33.411Z,6.57
2019-04-28T14:00:03.347Z,8.07
2019-04-28T14:02:36.283Z,5.23
2019-04-28T14:05:22.227Z,8.97
2019-04-28T14:07:50.487Z,8.37
2019-04-28T14:10:18.766Z,9.30
2019-04-28T14:12:47.052Z,8.60
2019-04-28T14:15:15.384Z,8.03
2019-04-28T14:17:43.750Z,7.13
2019-04-28T14:20:12.056Z,8.80
2019-04-28T14:22:40.946Z,9.07
2019-04-28T14:25:09.211Z,7.77
2019-04-28T14:27:37.469Z,8.63
2019-04-28T14:30:06.991Z,7.43
2019-04-28T14:32:35.247Z,7.20
2019-04-28T14:35:04.770Z,7.07
2019-04-28T14:37:33.101Z,7.13
2019-04-28T14:40:01.955Z,9.33
2019-04-28T14:42:30.784Z,8.97
2019-04-28T14:44:59.133Z,9.33
2019-04-28T14:47:27.916Z,13.35
2019-04-28T14:49:56.194Z,55.67
2019-04-28T14:52:24.460Z,62.67
2019-04-28T14:54:52.753Z,23.20
2019-04-28T14:57:21.083Z,25.77
2019-04-28T14:59:49.359Z,18.30
2019-04-28T15:02:28.278Z,18.60
2019-04-28T15:05:14.801Z,16.70
2019-04-28T15:07:44.707Z,18.87
2019-04-28T15:10:20.843Z,14.13
2019-04-28T15:12:49.201Z,15.77
2019-04-28T15:15:19.977Z,14.90
2019-04-28T15:17:47.680Z,17.73
2019-04-28T15:20:16.067Z,12.93
2019-04-28T15:22:44.378Z,9.70
2019-04-28T15:25:12.647Z,11.50
2019-04-28T15:27:40.915Z,9.67
2019-04-28T15:30:09.207Z,15.63
2019-04-28T15:32:37.474Z,16.23
2019-04-28T15:35:05.971Z,18.37
2019-04-28T15:37:34.247Z,13.50
2019-04-28T15:40:02.506Z,12.47
2019-04-28T15:42:30.790Z,15.77
2019-04-28T15:44:59.059Z,12.43
2019-04-28T15:47:27.340Z,14.30
2019-04-28T15:49:56.418Z,11.57
2019-04-28T15:52:24.694Z,13.37
2019-04-28T15:54:53.278Z,10.73
2019-04-28T15:57:21.543Z,14.57
2019-04-28T15:59:49.815Z,14.10
2019-04-28T16:02:18.088Z,12.50
2019-04-28T16:04:49.554Z,16.90
2019-04-28T16:07:24.633Z,12.83
2019-04-28T16:09:47.849Z,10.37
2019-04-28T16:12:16.118Z,13.37
2019-04-28T16:14:44.387Z,15.07
2019-04-28T16:17:12.682Z,16.83
2019-04-28T16:19:41.010Z,15.47
2019-04-28T16:22:09.274Z,10.93
2019-04-28T16:24:37.533Z,16.83
2019-04-28T16:27:06.587Z,12.67
2019-04-28T16:29:34.847Z,9.07
2019-04-28T16:32:03.120Z,12.83
2019-04-28T16:34:31.379Z,10.40
2019-04-28T16:36:59.645Z,11.53
2019-04-28T16:39:28.169Z,11.90
2019-04-28T16:41:56.444Z,8.13
2019-04-28T16:44:24.703Z,9.63
2019-04-28T16:46:52.982Z,8.73
2019-04-28T16:49:21.274Z,7.57
2019-04-28T16:51:49.527Z,9.93
2019-04-28T16:54:17.790Z,9.40
2019-04-28T16:56:54.247Z,12.87
2019-04-28T16:59:24.155Z,9.07
2019-04-28T17:01:54.090Z,12.33
2019-04-28T17:04:22.355Z,7.33
2019-04-28T17:06:50.690Z,9.23
2019-04-28T17:09:19.339Z,7.77
2019-04-28T17:11:47.600Z,9.47
2019-04-28T17:14:15.866Z,8.67
2019-04-28T17:16:44.130Z,6.90
2019-04-28T17:19:12.650Z,6.83
2019-04-28T17:21:40.915Z,6.43
2019-04-28T17:24:09.183Z,7.07
2019-04-28T17:26:37.444Z,5.83
2019-04-28T17:29:05.715Z,9.60
2019-04-28T17:31:34.543Z,9.23
2019-04-28T17:34:02.975Z,6.00
2019-04-28T17:36:31.503Z,9.67
2019-04-28T17:38:59.766Z,6.57
2019-04-28T17:41:28.022Z,7.83
2019-04-28T17:43:56.282Z,9.23
2019-04-28T17:46:24.566Z,7.90
2019-04-28T17:48:54.475Z,10.13
2019-04-28T17:51:22.779Z,7.70
2019-04-28T17:53:51.587Z,6.77
2019-04-28T17:56:19.863Z,9.83
2019-04-28T17:58:48.151Z,9.77
2019-04-28T18:01:18.579Z,7.33
2019-04-28T18:04:03.478Z,8.03
2019-04-28T18:06:33.398Z,8.80
2019-04-28T18:09:01.686Z,10.50
2019-04-28T18:11:30.291Z,9.77
2019-04-28T18:13:59.034Z,6.83
2019-04-28T18:16:47.329Z,4.80
2019-04-28T18:19:20.310Z,6.67
2019-04-28T18:21:48.626Z,5.30
2019-04-28T18:24:16.924Z,6.73
2019-04-28T18:26:45.181Z,5.63
2019-04-28T18:29:13.430Z,5.00
2019-04-28T18:31:46.069Z,5.80
2019-04-28T18:34:18.982Z,6.00
2019-04-28T18:36:55.114Z,9.10
2019-04-28T18:39:43.151Z,6.87
2019-04-28T18:42:22.181Z,4.90
2019-04-28T18:44:51.034Z,6.27
2019-04-28T18:47:19.285Z,6.30
2019-04-28T18:49:47.551Z,6.17
2019-04-28T18:52:16.110Z,6.80
2019-04-28T18:54:44.366Z,6.07
2019-04-28T18:57:12.656Z,4.67
2019-04-28T18:59:41.242Z,7.87
2019-04-28T19:02:20.164Z,6.40
2019-04-28T19:04:48.432Z,4.80
2019-04-28T19:07:18.362Z,8.77
2019-04-28T19:09:48.254Z,7.47
2019-04-28T19:12:18.167Z,6.60
2019-04-28T19:14:48.066Z,6.17
2019-04-28T19:17:29.874Z,5.97
2019-04-28T19:19:58.140Z,5.57
2019-04-28T19:22:26.659Z,4.73
2019-04-28T19:24:55.566Z,3.70
2019-04-28T19:27:23.835Z,4.43
2019-04-28T19:29:52.095Z,5.97
2019-04-28T19:32:20.371Z,6.47
2019-04-28T19:34:48.654Z,6.13
2019-04-28T19:37:16.922Z,3.90
2019-04-28T19:39:45.187Z,3.50
2019-04-28T19:42:13.478Z,5.93
2019-04-28T19:44:41.817Z,10.70
2019-04-28T19:47:10.163Z,8.73
2019-04-28T19:49:38.441Z,4.97
2019-04-28T19:52:06.711Z,6.17
2019-04-28T19:54:36.614Z,4.50
2019-04-28T19:57:21.860Z,9.13
2019-04-28T20:00:09.901Z,5.73
2019-04-28T20:02:38.219Z,4.90
2019-04-28T20:05:06.990Z,3.30
2019-04-28T20:07:35.290Z,3.83
2019-04-28T20:10:05.815Z,6.57
2019-04-28T20:12:34.087Z,6.10
2019-04-28T20:15:02.343Z,6.03
2019-04-28T20:17:30.682Z,6.87
2019-04-28T20:19:58.955Z,5.73
2019-04-28T20:22:27.792Z,5.00
2019-04-28T20:24:56.327Z,8.57
2019-04-28T20:27:24.602Z,4.30
2019-04-28T20:29:52.877Z,4.63
2019-04-28T20:32:21.127Z,3.03
2019-04-28T20:34:49.415Z,6.57
2019-04-28T20:37:29.485Z,5.03
2019-04-28T20:40:02.530Z,5.23
2019-04-28T20:42:44.650Z,3.53
2019-04-28T20:45:14.560Z,5.17
2019-04-28T20:47:43.180Z,4.23
2019-04-28T20:50:11.547Z,3.10
2019-04-28T20:52:39.863Z,5.33
2019-04-28T20:55:08.143Z,4.63
2019-04-28T20:57:36.412Z,4.57
2019-04-28T21:00:05.203Z,6.33
2019-04-28T21:02:33.556Z,7.50
2019-04-28T21:05:02.459Z,3.20
2019-04-28T21:07:30.711Z,2.53
2019-04-28T21:09:58.990Z,4.43
2019-04-28T21:12:27.250Z,3.53
2019-04-28T21:14:55.579Z,4.80
2019-04-28T21:17:24.471Z,4.57
2019-04-28T21:19:52.740Z,5.63
2019-04-28T21:22:21.007Z,7.20
2019-04-28T21:24:49.273Z,5.47
2019-04-28T21:27:17.570Z,3.47
2019-04-28T21:29:45.843Z,4.87
2019-04-28T21:32:14.129Z,4.60
2019-04-28T21:34:42.414Z,2.33
2019-04-28T21:37:10.675Z,4.83
2019-04-28T21:39:38.954Z,3.57
2019-04-28T21:42:08.930Z,4.43
2019-04-28T21:44:39.411Z,3.97
2019-04-28T21:47:12.010Z,5.53
2019-04-28T21:49:41.920Z,4.23
2019-04-28T21:52:10.170Z,4.23
2019-04-28T21:54:38.447Z,5.50
2019-04-28T21:57:06.702Z,2.83
2019-04-28T21:59:34.987Z,3.20
2019-04-28T22:02:03.263Z,3.73
2019-04-28T22:04:32.082Z,4.93
2019-04-28T22:07:00.378Z,3.60
2019-04-28T22:09:28.639Z,3.00
2019-04-28T22:11:56.915Z,3.40
2019-04-28T22:14:25.174Z,6.30
2019-04-28T22:16:53.450Z,4.30
2019-04-28T22:19:22.055Z,3.57
2019-04-28T22:21:50.401Z,6.87
2019-04-28T22:24:20.866Z,3.13
2019-04-28T22:26:50.866Z,2.33
2019-04-28T22:29:19.127Z,4.20
2019-04-28T22:31:47.391Z,4.10
2019-04-28T22:34:15.739Z,2.60
2019-04-28T22:36:44.855Z,3.87
2019-04-28T22:39:13.210Z,3.40
2019-04-28T22:41:41.589Z,3.40
2019-04-28T22:44:10.135Z,4.17
2019-04-28T22:46:38.758Z,2.30
2019-04-28T22:49:07.014Z,3.70
2019-04-28T22:51:35.314Z,2.60
2019-04-28T22:54:05.211Z,4.37
2019-04-28T22:56:35.791Z,3.90
2019-04-28T22:59:06.942Z,2.40
2019-04-28T23:01:36.843Z,4.27
2019-04-28T23:04:09.434Z,2.60
2019-04-28T23:06:37.730Z,3.33
2019-04-28T23:09:07.490Z,3.17
2019-04-28T23:11:36.035Z,3.33
2019-04-28T23:14:04.496Z,2.73
2019-04-28T23:16:32.831Z,1.77
2019-04-28T23:19:02.908Z,4.57
2019-04-28T23:21:41.887Z,4.20
2019-04-28T23:24:10.152Z,3.07
2019-04-28T23:26:38.418Z,4.50
2019-04-28T23:29:06.670Z,7.37
2019-04-28T23:31:34.958Z,3.57
2019-04-28T23:34:03.219Z,4.43
2019-04-28T23:36:31.476Z,4.37
2019-04-28T23:38:59.743Z,5.73
2019-04-28T23:41:35.891Z,3.90
2019-04-28T23:44:04.327Z,6.20
2019-04-28T23:46:50.191Z,4.60
2019-04-28T23:49:18.463Z,2.20
2019-04-28T23:51:50.999Z,3.27
2019-04-28T23:54:19.286Z,4.33
2019-04-28T23:56:47.551Z,6.33
2019-04-28T23:59:15.833Z,4.70
